createdAt,value
2023-02-27T00:00:44.062Z,94802.30
2023-02-27T00:03:26.295Z,94803.19
2023-02-27T00:05:56.452Z,94804.47
2023-02-27T00:08:25.067Z,94807.87
2023-02-27T00:10:53.398Z,94805.42
2023-02-27T00:13:21.513Z,94807.48
2023-02-27T00:15:50.581Z,94803.90
2023-02-27T00:18:18.933Z,94802.44
2023-02-27T00:20:48.600Z,94802.27
2023-02-27T00:23:16.884Z,94802.31
2023-02-27T00:25:45.203Z,94806.56
2023-02-27T00:28:13.577Z,94804.61
2023-02-27T00:30:41.887Z,94809.10
2023-02-27T00:33:10.037Z,94807.83
2023-02-27T00:35:38.324Z,94807.53
2023-02-27T00:38:06.560Z,94804.39
2023-02-27T00:40:37.945Z,94798.45
2023-02-27T00:43:06.076Z,94803.92
2023-02-27T00:45:34.366Z,94801.68
2023-02-27T00:48:02.583Z,94799.19
2023-02-27T00:50:30.751Z,94798.38
2023-02-27T00:52:59.003Z,94797.27
2023-02-27T00:55:27.509Z,94796.16
2023-02-27T00:57:55.800Z,94802.70
2023-02-27T01:00:24.598Z,94803.14
2023-02-27T01:02:52.727Z,94799.41
2023-02-27T01:05:21.480Z,94797.77
2023-02-27T01:07:50.176Z,94799.29
2023-02-27T01:10:18.387Z,94801.02
2023-02-27T01:12:46.558Z,94802.33
2023-02-27T01:15:14.888Z,94798.98
2023-02-27T01:17:43.408Z,94801.22
2023-02-27T01:20:13.466Z,94804.70
2023-02-27T01:22:41.863Z,94810.23
2023-02-27T01:25:10.408Z,94808.60
2023-02-27T01:27:40.958Z,94810.52
2023-02-27T01:30:11.696Z,94808.02
2023-02-27T01:32:40.022Z,94808.77
2023-02-27T01:35:08.714Z,94810.56
2023-02-27T01:37:36.884Z,94812.67
2023-02-27T01:40:08.022Z,94816.22
2023-02-27T01:42:36.378Z,94817.44
2023-02-27T01:45:32.281Z,94815.70
2023-02-27T01:48:13.099Z,94823.27
2023-02-27T01:50:48.682Z,94820.96
2023-02-27T01:53:19.242Z,94816.02
2023-02-27T01:55:49.691Z,94818.70
2023-02-27T01:58:18.118Z,94823.95
2023-02-27T02:00:46.703Z,94823.01
2023-02-27T02:03:22.963Z,94825.32
2023-02-27T02:05:55.640Z,94827.23
2023-02-27T02:08:28.243Z,94831.86
2023-02-27T02:10:58.412Z,94834.29
2023-02-27T02:13:27.789Z,94838.16
2023-02-27T02:16:16.106Z,94835.23
2023-02-27T02:19:05.482Z,94833.20
2023-02-27T02:22:04.802Z,94837.62
2023-02-27T02:24:51.128Z,94832.68
2023-02-27T02:27:36.099Z,94832.77
2023-02-27T02:30:13.590Z,94835.15
2023-02-27T02:33:02.089Z,94838.97
2023-02-27T02:35:30.326Z,94840.12
2023-02-27T02:38:23.633Z,94845.02
2023-02-27T02:41:07.399Z,94848.84
2023-02-27T02:44:20.651Z,94851.12
2023-02-27T02:47:19.350Z,94856.88
2023-02-27T02:50:19.990Z,94856.02
2023-02-27T02:53:03.583Z,94857.45
2023-02-27T02:55:38.509Z,94854.99
2023-02-27T02:58:06.572Z,94858.32
2023-02-27T03:01:10.263Z,94855.86
2023-02-27T03:03:48.105Z,94860.80
2023-02-27T03:06:27.905Z,94863.98
2023-02-27T03:08:59.869Z,94869.30
2023-02-27T03:11:34.701Z,94871.25
2023-02-27T03:14:29.214Z,94871.00
2023-02-27T03:17:02.463Z,94878.33
2023-02-27T03:19:40.481Z,94881.13
2023-02-27T03:22:17.417Z,94889.23
2023-02-27T03:24:50.133Z,94893.23
2023-02-27T03:27:19.923Z,94894.88
2023-02-27T03:30:08.416Z,94897.63
2023-02-27T03:32:53.257Z,94900.70
2023-02-27T03:35:24.549Z,94905.96
2023-02-27T03:37:58.240Z,94905.69
2023-02-27T03:40:48.465Z,94908.23
2023-02-27T03:44:01.246Z,94913.61
2023-02-27T03:46:29.588Z,94913.59
2023-02-27T03:48:58.814Z,94914.65
2023-02-27T03:51:28.942Z,94913.38
2023-02-27T03:54:04.213Z,94917.55
2023-02-27T03:57:06.209Z,94922.00
2023-02-27T03:59:38.194Z,94924.11
2023-02-27T04:02:07.799Z,94929.09
2023-02-27T04:04:36.373Z,94929.30
2023-02-27T04:07:23.777Z,94937.45
2023-02-27T04:10:07.296Z,94940.78
2023-02-27T04:12:41.598Z,94943.88
2023-02-27T04:15:12.688Z,94945.82
2023-02-27T04:18:19.511Z,94952.83
2023-02-27T04:21:06.295Z,94950.10
2023-02-27T04:23:56.946Z,94948.32
2023-02-27T04:26:39.538Z,94949.92
2023-02-27T04:29:23.452Z,94950.89
2023-02-27T04:31:57.691Z,94950.55
2023-02-27T04:34:56.698Z,94954.30
2023-02-27T04:37:38.284Z,94956.61
2023-02-27T04:40:11.523Z,94960.33
2023-02-27T04:42:46.900Z,94961.98
2023-02-27T04:45:20.925Z,94966.09
2023-02-27T04:48:04.856Z,94964.94
2023-02-27T04:50:50.848Z,94966.13
2023-02-27T04:53:25.085Z,94969.80
2023-02-27T04:56:05.041Z,94971.80
2023-02-27T04:58:47.333Z,94975.14
2023-02-27T05:01:30.243Z,94977.36
2023-02-27T05:04:00.502Z,94980.07
2023-02-27T05:06:35.360Z,94983.38
2023-02-27T05:09:22.689Z,94991.87
2023-02-27T05:12:11.113Z,94993.12
2023-02-27T05:14:46.494Z,94995.35
2023-02-27T05:17:27.148Z,95005.16
2023-02-27T05:19:56.247Z,95012.52
2023-02-27T05:22:42.620Z,95011.84
2023-02-27T05:25:37.537Z,95013.62
2023-02-27T05:28:33.242Z,95020.04
2023-02-27T05:31:21.050Z,95021.14
2023-02-27T05:34:00.515Z,95018.85
2023-02-27T05:36:35.008Z,95023.52
2023-02-27T05:39:06.942Z,95030.80
2023-02-27T05:41:42.233Z,95035.03
2023-02-27T05:44:13.208Z,95037.08
2023-02-27T05:46:57.919Z,95042.09
2023-02-27T05:49:31.824Z,95045.47
2023-02-27T05:52:03.222Z,95050.59
2023-02-27T05:54:36.486Z,95055.45
2023-02-27T05:57:10.518Z,95059.34
2023-02-27T05:59:51.602Z,95056.94
2023-02-27T06:02:20.133Z,95064.15
2023-02-27T06:04:48.438Z,95071.94
2023-02-27T06:07:16.933Z,95078.38
2023-02-27T06:09:47.194Z,95080.24
2023-02-27T06:12:19.376Z,95079.39
2023-02-27T06:14:47.683Z,95088.30
2023-02-27T06:17:16.343Z,95093.23
2023-02-27T06:19:44.771Z,95098.98
2023-02-27T06:22:13.139Z,95101.50
2023-02-27T06:24:46.032Z,95103.80
2023-02-27T06:27:14.522Z,95106.14
2023-02-27T06:29:43.190Z,95112.62
2023-02-27T06:32:14.341Z,95117.93
2023-02-27T06:34:43.736Z,95118.21
2023-02-27T06:37:14.720Z,95122.08
2023-02-27T06:39:50.697Z,95125.39
2023-02-27T06:42:23.876Z,95128.83
2023-02-27T06:44:53.141Z,95129.75
2023-02-27T06:47:21.260Z,95132.70
2023-02-27T06:49:56.554Z,95134.57
2023-02-27T06:52:24.909Z,95138.60
2023-02-27T06:54:55.062Z,95138.98
2023-02-27T06:57:26.967Z,95144.45
2023-02-27T06:59:56.434Z,95148.05
2023-02-27T07:02:26.335Z,95146.34
2023-02-27T07:04:54.874Z,95146.27
2023-02-27T07:07:35.227Z,95145.07
2023-02-27T07:10:09.426Z,95154.98
2023-02-27T07:12:38.520Z,95152.49
2023-02-27T07:15:07.989Z,95153.50
2023-02-27T07:17:36.412Z,95157.55
2023-02-27T07:20:07.355Z,95157.31
2023-02-27T07:22:35.944Z,95158.91
2023-02-27T07:25:07.852Z,95158.85
2023-02-27T07:27:36.421Z,95163.73
2023-02-27T07:30:05.189Z,95165.36
2023-02-27T07:32:33.564Z,95172.52
2023-02-27T07:35:02.762Z,95171.80
2023-02-27T07:37:30.934Z,95172.61
2023-02-27T07:39:59.246Z,95173.44
2023-02-27T07:42:27.595Z,95178.42
2023-02-27T07:44:56.449Z,95177.80
2023-02-27T07:47:24.692Z,95183.08
2023-02-27T07:49:53.817Z,95187.52
2023-02-27T07:52:25.593Z,95191.67
2023-02-27T07:54:53.947Z,95191.73
2023-02-27T07:57:22.334Z,95196.96
2023-02-27T07:59:50.516Z,95198.84
2023-02-27T08:02:19.210Z,95202.73
2023-02-27T08:04:47.801Z,95202.87
2023-02-27T08:07:17.490Z,95205.48
2023-02-27T08:09:45.773Z,95209.70
2023-02-27T08:12:17.904Z,95212.21
2023-02-27T08:14:46.127Z,95216.79
2023-02-27T08:17:15.284Z,95221.58
2023-02-27T08:19:44.656Z,95225.65
2023-02-27T08:22:13.526Z,95231.41
2023-02-27T08:24:44.563Z,95236.60
2023-02-27T08:27:12.771Z,95238.83
2023-02-27T08:29:43.476Z,95242.88
2023-02-27T08:32:14.370Z,95248.98
2023-02-27T08:34:42.676Z,95247.86
2023-02-27T08:37:11.130Z,95251.02
2023-02-27T08:39:39.450Z,95254.20
2023-02-27T08:42:08.970Z,95261.40
2023-02-27T08:44:38.688Z,95260.33
2023-02-27T08:47:09.580Z,95269.90
2023-02-27T08:49:37.925Z,95273.98
2023-02-27T08:52:06.084Z,95281.64
2023-02-27T08:54:34.823Z,95289.64
2023-02-27T08:57:04.211Z,95288.64
2023-02-27T08:59:32.750Z,95291.23
2023-02-27T09:02:00.999Z,95297.38
2023-02-27T09:04:29.382Z,95301.61
2023-02-27T09:06:58.212Z,95308.70
2023-02-27T09:09:29.522Z,95316.11
2023-02-27T09:11:58.407Z,95325.52
2023-02-27T09:14:26.539Z,95321.84
2023-02-27T09:16:55.701Z,95316.71
2023-02-27T09:19:25.118Z,95319.04
2023-02-27T09:21:53.352Z,95315.22
2023-02-27T09:24:21.587Z,95305.69
2023-02-27T09:26:52.782Z,95310.84
2023-02-27T09:29:21.638Z,95315.13
2023-02-27T09:31:50.044Z,95318.55
2023-02-27T09:34:19.485Z,95320.80
2023-02-27T09:36:48.580Z,95322.54
2023-02-27T09:39:18.179Z,95331.05
2023-02-27T09:42:01.507Z,95342.20
2023-02-27T09:44:47.463Z,95348.89
2023-02-27T09:47:54.216Z,95357.95
2023-02-27T09:50:48.116Z,95365.15
2023-02-27T09:53:30.081Z,95371.89
2023-02-27T09:56:08.379Z,95369.11
2023-02-27T09:58:39.386Z,95376.80
2023-02-27T10:01:36.313Z,95383.36
2023-02-27T10:04:21.310Z,95385.80
2023-02-27T10:06:54.390Z,95390.34
2023-02-27T10:09:22.822Z,95387.27
2023-02-27T10:12:00.259Z,95388.63
2023-02-27T10:14:33.656Z,95389.50
2023-02-27T10:17:12.907Z,95385.56
2023-02-27T10:19:45.433Z,95393.02
2023-02-27T10:22:23.669Z,95401.19
2023-02-27T10:25:00.593Z,95403.57
2023-02-27T10:27:31.665Z,95403.53
2023-02-27T10:30:29.748Z,95401.19
2023-02-27T10:33:31.898Z,95401.60
2023-02-27T10:36:02.812Z,95415.98
2023-02-27T10:38:37.503Z,95414.33
2023-02-27T10:41:08.397Z,95419.96
2023-02-27T10:43:38.738Z,95428.01
2023-02-27T10:46:22.083Z,95429.85
2023-02-27T10:48:50.830Z,95434.63
2023-02-27T10:51:24.727Z,95436.70
2023-02-27T10:54:18.848Z,95442.95
2023-02-27T10:56:55.750Z,95447.86
2023-02-27T10:59:31.871Z,95447.91
2023-02-27T11:02:06.897Z,95450.14
2023-02-27T11:04:40.006Z,95456.62
2023-02-27T11:07:18.731Z,95466.33
2023-02-27T11:10:04.338Z,95466.90
2023-02-27T11:13:05.952Z,95463.18
2023-02-27T11:15:39.451Z,95468.48
2023-02-27T11:18:30.790Z,95469.13
2023-02-27T11:21:27.529Z,95469.14
2023-02-27T11:24:07.721Z,95479.29
2023-02-27T11:26:56.621Z,95475.98
2023-02-27T11:29:29.480Z,95479.67
2023-02-27T11:32:00.391Z,95482.77
2023-02-27T11:34:33.003Z,95480.54
2023-02-27T11:37:06.054Z,95480.29
2023-02-27T11:39:51.039Z,95485.68
2023-02-27T11:42:30.800Z,95492.74
2023-02-27T11:45:08.403Z,95491.58
2023-02-27T11:47:40.711Z,95498.27
2023-02-27T11:50:47.131Z,95497.42
2023-02-27T11:53:37.910Z,95496.83
2023-02-27T11:56:13.329Z,95498.51
2023-02-27T11:58:49.655Z,95506.98
2023-02-27T12:01:31.382Z,95508.39
2023-02-27T12:04:09.471Z,95508.59
2023-02-27T12:06:46.922Z,95508.63
2023-02-27T12:09:27.420Z,95515.88
2023-02-27T12:11:56.873Z,95535.77
2023-02-27T12:14:38.636Z,95544.63
2023-02-27T12:17:27.553Z,95548.48
2023-02-27T12:20:25.438Z,95546.51
2023-02-27T12:22:54.943Z,95555.55
2023-02-27T12:25:45.773Z,95553.73
2023-02-27T12:28:40.105Z,95553.46
2023-02-27T12:31:21.786Z,95553.64
2023-02-27T12:34:01.124Z,95556.98
2023-02-27T12:36:30.839Z,95560.50
2023-02-27T12:38:59.981Z,95561.40
2023-02-27T12:41:44.100Z,95563.05
2023-02-27T12:44:28.499Z,95571.84
2023-02-27T12:47:20.246Z,95587.02
2023-02-27T12:50:06.810Z,95594.59
2023-02-27T12:53:13.139Z,95593.05
2023-02-27T12:55:47.433Z,95600.45
2023-02-27T12:58:24.374Z,95600.45
2023-02-27T13:01:01.210Z,95605.81
2023-02-27T13:03:41.138Z,95602.73
2023-02-27T13:06:15.415Z,95604.89
2023-02-27T13:08:51.623Z,95608.20
2023-02-27T13:11:47.159Z,95618.55
2023-02-27T13:14:27.640Z,95623.34
2023-02-27T13:17:18.788Z,95625.31
2023-02-27T13:20:25.983Z,95626.48
2023-02-27T13:22:56.703Z,95632.31
2023-02-27T13:25:26.510Z,95636.52
2023-02-27T13:28:03.977Z,95642.30
2023-02-27T13:30:39.995Z,95648.18
2023-02-27T13:33:14.071Z,95648.39
2023-02-27T13:36:18.667Z,95649.76
2023-02-27T13:38:52.333Z,95655.06
2023-02-27T13:41:20.371Z,95657.94
2023-02-27T13:43:52.744Z,95656.93
2023-02-27T13:46:28.602Z,95663.05
2023-02-27T13:49:06.003Z,95662.95
2023-02-27T13:51:40.152Z,95663.55
2023-02-27T13:54:14.535Z,95673.50
2023-02-27T13:56:55.107Z,95671.11
2023-02-27T13:59:40.734Z,95674.84
2023-02-27T14:02:11.740Z,95672.76
2023-02-27T14:04:43.237Z,95676.52
2023-02-27T14:07:18.730Z,95683.33
2023-02-27T14:09:50.519Z,95686.95
2023-02-27T14:12:45.564Z,95688.58
2023-02-27T14:15:23.931Z,95686.57
2023-02-27T14:18:12.411Z,95684.67
2023-02-27T14:20:42.305Z,95687.16
2023-02-27T14:23:27.137Z,95696.95
2023-02-27T14:26:02.222Z,95699.22
2023-02-27T14:28:55.826Z,95706.11
2023-02-27T14:31:27.041Z,95717.51
2023-02-27T14:33:59.278Z,95708.18
2023-02-27T14:36:39.725Z,95708.58
2023-02-27T14:39:21.058Z,95710.01
2023-02-27T14:42:07.807Z,95707.30
2023-02-27T14:44:43.741Z,95710.28
2023-02-27T14:47:19.517Z,95713.77
2023-02-27T14:49:48.261Z,95717.10
2023-02-27T14:52:30.013Z,95719.38
2023-02-27T14:55:16.353Z,95724.46
2023-02-27T14:57:58.445Z,95722.13
2023-02-27T15:00:29.984Z,95726.29
2023-02-27T15:02:59.930Z,95725.73
2023-02-27T15:05:34.722Z,95728.52
2023-02-27T15:08:03.709Z,95735.05
2023-02-27T15:10:33.366Z,95737.10
2023-02-27T15:13:02.901Z,95736.81
2023-02-27T15:15:32.005Z,95734.58
2023-02-27T15:18:01.254Z,95744.55
2023-02-27T15:20:31.373Z,95746.30
2023-02-27T15:23:01.896Z,95751.58
2023-02-27T15:25:38.537Z,95758.06
2023-02-27T15:28:19.064Z,95760.21
2023-02-27T15:30:52.203Z,95762.31
2023-02-27T15:33:28.048Z,95764.49
2023-02-27T15:35:56.893Z,95768.76
2023-02-27T15:38:32.728Z,95773.04
2023-02-27T15:41:03.036Z,95775.56
2023-02-27T15:43:31.932Z,95778.48
2023-02-27T15:46:00.437Z,95787.39
2023-02-27T15:48:29.978Z,95794.21
2023-02-27T15:50:59.641Z,95802.31
2023-02-27T15:53:30.817Z,95806.19
2023-02-27T15:56:06.219Z,95807.84
2023-02-27T15:58:37.280Z,95809.68
2023-02-27T16:01:11.525Z,95808.71
2023-02-27T16:03:51.684Z,95813.91
2023-02-27T16:06:35.644Z,95819.73
2023-02-27T16:09:41.592Z,95820.61
2023-02-27T16:12:19.850Z,95817.85
2023-02-27T16:14:49.040Z,95826.08
2023-02-27T16:17:29.223Z,95832.50
2023-02-27T16:20:01.935Z,95831.22
2023-02-27T16:22:30.681Z,95831.56
2023-02-27T16:25:11.567Z,95839.80
2023-02-27T16:27:39.817Z,95842.44
2023-02-27T16:30:12.602Z,95844.66
2023-02-27T16:32:44.285Z,95846.86
2023-02-27T16:35:23.649Z,95856.42
2023-02-27T16:37:53.631Z,95858.49
2023-02-27T16:40:25.045Z,95867.50
2023-02-27T16:42:53.813Z,95876.23
2023-02-27T16:45:28.043Z,95876.02
2023-02-27T16:47:58.843Z,95880.67
2023-02-27T16:50:31.844Z,95886.11
2023-02-27T16:53:00.643Z,95887.46
2023-02-27T16:55:28.989Z,95885.46
2023-02-27T16:57:57.161Z,95886.06
2023-02-27T17:00:25.317Z,95887.98
2023-02-27T17:02:53.448Z,95891.96
2023-02-27T17:05:23.262Z,95899.34
2023-02-27T17:07:51.659Z,95901.78
2023-02-27T17:10:22.430Z,95903.12
2023-02-27T17:12:50.716Z,95906.59
2023-02-27T17:15:19.901Z,95914.90
2023-02-27T17:17:48.135Z,95918.08
2023-02-27T17:20:16.340Z,95918.38
2023-02-27T17:22:45.346Z,95919.51
2023-02-27T17:25:15.022Z,95924.53
2023-02-27T17:27:44.453Z,95925.57
2023-02-27T17:30:14.165Z,95931.44
2023-02-27T17:32:42.409Z,95929.84
2023-02-27T17:35:11.240Z,95928.63
2023-02-27T17:37:39.401Z,95927.83
2023-02-27T17:40:08.980Z,95925.15
2023-02-27T17:42:37.315Z,95927.02
2023-02-27T17:45:08.151Z,95928.31
2023-02-27T17:47:36.403Z,95922.45
2023-02-27T17:50:05.698Z,95915.03
2023-02-27T17:52:37.500Z,95919.58
2023-02-27T17:55:08.649Z,95931.83
2023-02-27T17:57:38.660Z,95936.41
2023-02-27T18:00:10.219Z,95943.39
2023-02-27T18:02:38.364Z,95946.25
2023-02-27T18:05:07.281Z,95952.13
2023-02-27T18:07:35.501Z,95950.55
2023-02-27T18:10:05.843Z,95947.79
2023-02-27T18:12:34.517Z,95947.41
2023-02-27T18:15:04.062Z,95946.02
2023-02-27T18:17:33.106Z,95947.98
2023-02-27T18:20:01.497Z,95951.34
2023-02-27T18:22:33.050Z,95950.02
2023-02-27T18:25:01.288Z,95953.95
2023-02-27T18:27:29.975Z,95961.06
2023-02-27T18:29:59.338Z,95959.60
2023-02-27T18:32:27.509Z,95961.27
2023-02-27T18:34:55.828Z,95969.58
2023-02-27T18:37:23.977Z,95968.63
2023-02-27T18:39:52.197Z,95970.38
2023-02-27T18:42:20.381Z,95972.82
2023-02-27T18:44:48.786Z,95976.46
2023-02-27T18:47:16.853Z,95973.54
2023-02-27T18:49:46.505Z,95977.13
2023-02-27T18:52:14.860Z,95975.69
2023-02-27T18:54:43.874Z,95968.69
2023-02-27T18:57:12.070Z,95972.23
2023-02-27T18:59:41.596Z,95973.27
2023-02-27T19:02:14.670Z,95979.65
2023-02-27T19:04:42.837Z,95984.34
2023-02-27T19:07:11.287Z,95984.14
2023-02-27T19:09:39.493Z,95990.11
2023-02-27T19:12:10.845Z,95998.48
2023-02-27T19:14:39.005Z,96002.35
2023-02-27T19:17:07.602Z,96005.44
2023-02-27T19:19:35.928Z,96009.59
2023-02-27T19:22:04.452Z,96005.57
2023-02-27T19:24:32.716Z,96009.40
2023-02-27T19:27:01.017Z,96005.23
2023-02-27T19:29:29.154Z,96010.18
2023-02-27T19:31:57.425Z,96013.70
2023-02-27T19:34:25.631Z,96013.02
2023-02-27T19:36:54.020Z,96010.77
2023-02-27T19:39:25.124Z,96012.52
2023-02-27T19:41:55.451Z,96021.13
2023-02-27T19:44:23.918Z,96023.59
2023-02-27T19:46:53.145Z,96029.64
2023-02-27T19:49:23.974Z,96031.02
2023-02-27T19:51:52.280Z,96028.70
2023-02-27T19:54:20.473Z,96026.95
2023-02-27T19:56:48.647Z,96028.80
2023-02-27T19:59:17.953Z,96028.02
2023-02-27T20:01:46.002Z,96029.25
2023-02-27T20:04:14.554Z,96027.88
2023-02-27T20:06:46.143Z,96034.63
2023-02-27T20:09:16.769Z,96032.20
2023-02-27T20:11:45.911Z,96038.70
2023-02-27T20:14:15.705Z,96044.36
2023-02-27T20:16:45.010Z,96047.08
2023-02-27T20:19:16.093Z,96050.42
2023-02-27T20:21:45.405Z,96042.05
2023-02-27T20:24:14.853Z,96043.27
2023-02-27T20:26:47.692Z,96046.05
2023-02-27T20:29:19.289Z,96042.73
2023-02-27T20:31:49.407Z,96044.11
2023-02-27T20:34:25.930Z,96051.17
2023-02-27T20:36:55.543Z,96050.88
2023-02-27T20:39:24.627Z,96047.48
2023-02-27T20:41:52.935Z,96043.91
2023-02-27T20:44:21.298Z,96048.65
2023-02-27T20:46:49.808Z,96044.49
2023-02-27T20:49:18.387Z,96039.90
2023-02-27T20:51:46.583Z,96035.92
2023-02-27T20:54:20.434Z,96027.55
2023-02-27T20:56:52.227Z,96027.42
2023-02-27T20:59:23.533Z,96027.20
2023-02-27T21:01:52.695Z,96026.43
2023-02-27T21:04:24.863Z,96025.05
2023-02-27T21:06:54.792Z,96029.41
2023-02-27T21:09:23.069Z,96026.33
2023-02-27T21:11:51.223Z,96022.77
2023-02-27T21:14:19.637Z,96031.56
2023-02-27T21:16:47.670Z,96032.20
2023-02-27T21:19:16.156Z,96037.24
2023-02-27T21:21:44.269Z,96047.64
2023-02-27T21:24:12.447Z,96047.88
2023-02-27T21:26:41.297Z,96048.33
2023-02-27T21:29:18.387Z,96055.81
2023-02-27T21:31:49.172Z,96061.02
2023-02-27T21:34:23.514Z,96056.86
2023-02-27T21:36:52.723Z,96056.30
2023-02-27T21:39:26.337Z,96050.59
2023-02-27T21:41:55.090Z,96035.39
2023-02-27T21:44:26.905Z,96033.74
2023-02-27T21:46:55.108Z,96034.33
2023-02-27T21:49:26.268Z,96034.77
2023-02-27T21:51:55.157Z,96033.68
2023-02-27T21:54:23.817Z,96057.92
2023-02-27T21:56:52.074Z,96064.48
2023-02-27T21:59:21.670Z,96060.65
2023-02-27T22:01:50.018Z,96073.91
2023-02-27T22:04:19.955Z,96070.12
2023-02-27T22:06:50.350Z,96069.46
2023-02-27T22:09:19.699Z,96076.09
2023-02-27T22:11:48.407Z,96081.67
2023-02-27T22:14:17.327Z,96079.39
2023-02-27T22:16:45.496Z,96083.19
2023-02-27T22:19:20.010Z,96080.63
2023-02-27T22:21:49.047Z,96079.94
2023-02-27T22:24:17.860Z,96083.35
2023-02-27T22:26:47.917Z,96081.17
2023-02-27T22:29:17.310Z,96084.44
2023-02-27T22:31:46.135Z,96079.02
2023-02-27T22:34:18.671Z,96080.52
2023-02-27T22:36:52.827Z,96082.64
2023-02-27T22:39:21.720Z,96081.46
2023-02-27T22:41:50.212Z,96083.96
2023-02-27T22:44:18.472Z,96082.05
2023-02-27T22:46:48.893Z,96083.33
2023-02-27T22:49:20.160Z,96084.61
2023-02-27T22:51:51.041Z,96082.84
2023-02-27T22:54:22.101Z,96084.99
2023-02-27T22:56:52.068Z,96085.98
2023-02-27T22:59:21.463Z,96082.58
2023-02-27T23:01:50.794Z,96093.29
2023-02-27T23:04:19.007Z,96092.84
2023-02-27T23:06:47.215Z,96084.89
2023-02-27T23:09:19.149Z,96084.12
2023-02-27T23:11:47.850Z,96079.92
2023-02-27T23:14:16.647Z,96083.23
2023-02-27T23:16:45.990Z,96087.88
2023-02-27T23:19:19.999Z,96088.60
2023-02-27T23:21:48.479Z,96087.41
2023-02-27T23:24:18.792Z,96091.63
2023-02-27T23:26:49.286Z,96088.86
2023-02-27T23:29:18.701Z,96090.08
2023-02-27T23:31:47.047Z,96088.66
2023-02-27T23:34:15.215Z,96087.32
2023-02-27T23:36:43.454Z,96090.32
2023-02-27T23:39:11.642Z,96090.00
2023-02-27T23:41:40.025Z,96087.19
2023-02-27T23:44:08.161Z,96087.02
2023-02-27T23:46:36.419Z,96086.82
2023-02-27T23:49:04.659Z,96087.84
2023-02-27T23:51:33.531Z,96087.63
2023-02-27T23:54:02.154Z,96093.52
2023-02-27T23:56:31.170Z,96099.13
2023-02-27T23:59:05.446Z,96101.67
